Terrace Airport
CYXT : now visible

Airfield :











YOU CAN JOIN US ON...

 
LOGIN :

Register | Disclaimer

   EN    FR    IT 

 









Legend :    VFR   Marginal VFR   IFR   Intensive IFR   Very Intensive IFR
Visi :
Ceiling :
>= 8 km
>= 3000ft
5 to 8 km
1000 to 3000 ft
1500m to 5 km
500 to 1000 ft
800 to 1500m
200 to 500 ft
< 800m
< 200 ft
Symbols :   Thunderstorms  Fog  Heavy snow  Heavy precipitations  Wind > 20 kt







- Airport Elevation : 713 ft
- IATA code : YXT


CYXT - Terrace

CURRENT METAR :
  • 181100Z 01005KT 20SM FEW015 08/07 A2990 RMK SC1 SLP129

EXPIRED METARs :
  • 181000Z VRB02KT 20SM SKC 08/08 A2989 RMK SLP126
  • 180900Z 36004KT 300V030 20SM SKC 09/08 A2987 RMK SLP120

TAF TAF CYXT
Valid from the 18 at 07:00 until the 18 at 19:00 UTC


180641Z 1807/1819 36006KT P6SM FEW100
PROB30 1809/1816 1/2SM FG VV002 RMK NXT FCST BY 181300Z
No reported NOTAMs for that airfield.



MET'MAP, your aeronautical weather chart ! - Copyright ORBIFLY December 2007 - Disclaimer

ORBIFLY MET'MAP TEAM :

Programming & Development : Alexandra Zaïnal
Concept & Development : Baudouin d'Aumeries
Co-Development & Prog : Marc-Olivier Méhu
Technical & hardware support : Manuel Goepfert

Contact : metmap@orbifly.com




SOURCES & CREDITS :

   NOAA       Earth
Advisory